createdAt,value
2022-09-10T00:00:20.143Z,16.20
2022-09-10T00:01:26.055Z,16.20
2022-09-10T00:02:28.226Z,16.20
2022-09-10T00:03:31.250Z,16.20
2022-09-10T00:04:33.669Z,16.20
2022-09-10T00:05:40.499Z,16.20
2022-09-10T00:06:43.371Z,16.20
2022-09-10T00:07:47.381Z,16.20
2022-09-10T00:08:49.317Z,16.20
2022-09-10T00:09:52.814Z,16.20
2022-09-10T00:10:54.754Z,16.20
2022-09-10T00:11:58.074Z,16.20
2022-09-10T00:12:59.969Z,16.20
2022-09-10T00:14:06.158Z,16.20
2022-09-10T00:15:10.106Z,16.20
2022-09-10T00:16:15.525Z,16.20
2022-09-10T00:17:17.720Z,16.20
2022-09-10T00:18:22.374Z,16.20
2022-09-10T00:19:25.305Z,16.30
2022-09-10T00:20:27.268Z,16.30
2022-09-10T00:21:30.939Z,16.30
2022-09-10T00:22:34.330Z,16.30
2022-09-10T00:23:37.763Z,16.30
2022-09-10T00:24:39.695Z,16.30
2022-09-10T00:25:42.957Z,16.30
2022-09-10T00:26:45.230Z,16.30
2022-09-10T00:27:48.166Z,16.30
2022-09-10T00:28:51.417Z,16.30
2022-09-10T00:29:56.291Z,16.30
2022-09-10T00:30:58.354Z,16.30
2022-09-10T00:32:01.415Z,16.20
2022-09-10T00:33:03.409Z,16.20
2022-09-10T00:34:06.849Z,16.20
2022-09-10T00:35:09.008Z,16.20
2022-09-10T00:36:16.162Z,16.20
2022-09-10T00:37:19.248Z,16.20
2022-09-10T00:38:22.159Z,16.20
2022-09-10T00:39:24.096Z,16.20
2022-09-10T00:40:27.138Z,16.20
2022-09-10T00:41:29.617Z,16.20
2022-09-10T00:42:32.549Z,16.20
2022-09-10T00:43:50.261Z,16.30
2022-09-10T00:44:59.769Z,16.20
2022-09-10T00:46:01.754Z,16.20
2022-09-10T00:47:06.075Z,16.10
2022-09-10T00:48:15.412Z,16.20
2022-09-10T00:49:23.785Z,16.10
2022-09-10T00:50:29.158Z,16.10
2022-09-10T00:51:36.093Z,16.10
2022-09-10T00:52:39.974Z,16.00
2022-09-10T00:53:43.414Z,16.00
2022-09-10T00:54:47.621Z,16.00
2022-09-10T00:55:53.857Z,16.00
2022-09-10T00:56:59.635Z,16.00
2022-09-10T00:58:07.436Z,16.00
2022-09-10T00:59:11.185Z,16.00
2022-09-10T01:00:16.894Z,16.00
2022-09-10T01:01:19.614Z,16.00
2022-09-10T01:02:22.741Z,16.00
2022-09-10T01:03:25.826Z,16.00
2022-09-10T01:04:29.733Z,16.00
2022-09-10T01:05:34.341Z,16.00
2022-09-10T01:06:38.158Z,16.00
2022-09-10T01:07:40.513Z,16.00
2022-09-10T01:08:43.405Z,16.00
2022-09-10T01:09:45.406Z,16.00
2022-09-10T01:11:00.089Z,16.00
2022-09-10T01:12:16.002Z,16.00
2022-09-10T01:13:34.082Z,16.00
2022-09-10T01:15:03.290Z,16.00
2022-09-10T01:16:16.315Z,16.00
2022-09-10T01:17:29.839Z,16.10
2022-09-10T01:18:41.801Z,16.10
2022-09-10T01:20:05.394Z,16.10
2022-09-10T01:21:18.024Z,16.10
2022-09-10T01:22:31.865Z,16.00
2022-09-10T01:24:12.621Z,16.00
2022-09-10T01:25:27.677Z,15.90
2022-09-10T01:26:50.338Z,16.00
2022-09-10T01:27:57.751Z,15.90
2022-09-10T01:29:05.627Z,15.90
2022-09-10T01:30:11.577Z,15.90
2022-09-10T01:31:21.690Z,15.90
2022-09-10T01:32:40.163Z,15.90
2022-09-10T01:33:50.514Z,15.90
2022-09-10T01:34:56.366Z,15.80
2022-09-10T01:36:02.865Z,15.80
2022-09-10T01:37:08.163Z,15.80
2022-09-10T01:38:25.438Z,15.80
2022-09-10T01:39:27.890Z,15.80
2022-09-10T01:40:32.379Z,15.70
2022-09-10T01:41:34.482Z,15.70
2022-09-10T01:42:40.105Z,15.70
2022-09-10T01:43:43.390Z,15.70
2022-09-10T01:44:48.354Z,15.80
2022-09-10T01:46:09.808Z,15.80
2022-09-10T01:47:18.605Z,15.80
2022-09-10T01:48:49.241Z,15.80
2022-09-10T01:50:22.649Z,15.90
2022-09-10T01:51:34.392Z,15.80
2022-09-10T01:52:45.665Z,15.80
2022-09-10T01:54:06.719Z,15.80
2022-09-10T01:55:23.678Z,15.70
2022-09-10T01:56:35.534Z,15.70
2022-09-10T01:57:45.170Z,15.70
2022-09-10T01:58:49.645Z,15.70
2022-09-10T01:59:59.813Z,15.80
2022-09-10T02:01:12.486Z,15.80
2022-09-10T02:02:19.718Z,15.70
2022-09-10T02:03:26.466Z,15.70
2022-09-10T02:04:30.851Z,15.60
2022-09-10T02:05:36.794Z,15.60
2022-09-10T02:06:43.272Z,15.60
2022-09-10T02:07:46.889Z,15.60
2022-09-10T02:08:53.534Z,15.60
2022-09-10T02:09:56.798Z,15.60
2022-09-10T02:11:02.035Z,15.60
2022-09-10T02:12:04.446Z,15.60
2022-09-10T02:13:07.715Z,15.70
2022-09-10T02:14:14.106Z,15.80
2022-09-10T02:15:19.389Z,15.70
2022-09-10T02:16:28.533Z,15.80
2022-09-10T02:17:36.246Z,15.80
2022-09-10T02:18:39.315Z,15.90
2022-09-10T02:19:43.462Z,15.80
2022-09-10T02:20:46.500Z,15.80
2022-09-10T02:21:49.833Z,15.80
2022-09-10T02:22:55.617Z,15.80
2022-09-10T02:24:05.883Z,15.80
2022-09-10T02:25:09.879Z,15.80
2022-09-10T02:26:14.437Z,15.70
2022-09-10T02:27:16.838Z,15.80
2022-09-10T02:28:19.798Z,15.80
2022-09-10T02:29:23.592Z,15.80
2022-09-10T02:30:26.778Z,15.80
2022-09-10T02:31:29.363Z,15.80
2022-09-10T02:32:32.318Z,15.80
2022-09-10T02:33:35.130Z,15.90
2022-09-10T02:34:38.102Z,15.90
2022-09-10T02:35:40.017Z,15.90
2022-09-10T02:36:43.455Z,15.80
2022-09-10T02:37:45.354Z,15.80
2022-09-10T02:38:48.296Z,15.80
2022-09-10T02:39:50.277Z,15.80
2022-09-10T02:40:53.236Z,15.80
2022-09-10T02:41:55.877Z,15.80
2022-09-10T02:42:58.839Z,15.80
2022-09-10T02:44:01.330Z,15.80
2022-09-10T02:45:06.985Z,15.80
2022-09-10T02:46:08.898Z,15.90
2022-09-10T02:47:12.305Z,15.80
2022-09-10T02:48:14.321Z,15.80
2022-09-10T02:49:18.058Z,15.80
2022-09-10T02:50:20.450Z,15.80
2022-09-10T02:51:23.546Z,15.80
2022-09-10T02:52:25.774Z,15.80
2022-09-10T02:53:28.652Z,15.80
2022-09-10T02:54:31.009Z,15.80
2022-09-10T02:55:33.921Z,15.90
2022-09-10T02:56:36.169Z,15.90
2022-09-10T02:57:39.468Z,15.90
2022-09-10T02:58:41.873Z,15.90
2022-09-10T02:59:44.788Z,15.80
2022-09-10T03:00:48.533Z,15.90
2022-09-10T03:01:51.797Z,15.90
2022-09-10T03:03:00.903Z,15.90
2022-09-10T03:04:05.774Z,15.80
2022-09-10T03:05:08.373Z,15.90
2022-09-10T03:06:11.972Z,15.80
2022-09-10T03:07:17.055Z,15.70
2022-09-10T03:08:19.960Z,15.80
2022-09-10T03:09:22.377Z,15.70
2022-09-10T03:10:25.505Z,15.70
2022-09-10T03:11:27.709Z,15.70
2022-09-10T03:12:30.717Z,15.70
2022-09-10T03:13:32.843Z,15.70
2022-09-10T03:14:35.824Z,15.80
2022-09-10T03:15:38.220Z,15.80
2022-09-10T03:16:43.318Z,15.80
2022-09-10T03:17:45.253Z,15.80
2022-09-10T03:18:48.399Z,15.80
2022-09-10T03:19:50.445Z,15.90
2022-09-10T03:20:53.345Z,15.80
2022-09-10T03:21:55.334Z,15.80
2022-09-10T03:22:58.236Z,15.80
2022-09-10T03:24:00.208Z,15.80
2022-09-10T03:25:03.132Z,15.80
2022-09-10T03:26:06.082Z,15.80
2022-09-10T03:27:08.984Z,15.80
2022-09-10T03:28:10.897Z,15.80
2022-09-10T03:29:14.069Z,15.70
2022-09-10T03:30:17.417Z,15.70
2022-09-10T03:31:19.638Z,15.70
2022-09-10T03:32:23.981Z,15.70
2022-09-10T03:33:25.930Z,15.70
2022-09-10T03:34:28.885Z,15.60
2022-09-10T03:35:30.837Z,15.70
2022-09-10T03:36:33.785Z,15.70
2022-09-10T03:37:35.713Z,15.70
2022-09-10T03:38:38.778Z,15.70
2022-09-10T03:39:40.770Z,15.60
2022-09-10T03:40:43.661Z,15.70
2022-09-10T03:41:45.841Z,15.70
2022-09-10T03:42:48.741Z,15.70
2022-09-10T03:43:50.685Z,15.70
2022-09-10T03:44:53.614Z,15.70
2022-09-10T03:45:55.633Z,15.70
2022-09-10T03:46:58.569Z,15.70
2022-09-10T03:48:03.898Z,15.70
2022-09-10T03:49:07.026Z,15.70
2022-09-10T03:50:09.733Z,15.80
2022-09-10T03:51:12.874Z,15.70
2022-09-10T03:52:14.779Z,15.70
2022-09-10T03:53:19.205Z,15.70
2022-09-10T03:54:21.245Z,15.70
2022-09-10T03:55:24.685Z,15.70
2022-09-10T03:56:27.040Z,15.70
2022-09-10T03:57:30.258Z,15.80
2022-09-10T03:58:32.345Z,15.80
2022-09-10T03:59:35.380Z,15.70
2022-09-10T04:00:37.290Z,15.70
2022-09-10T04:01:40.718Z,15.60
2022-09-10T04:02:44.192Z,15.70
2022-09-10T04:03:48.750Z,15.70
2022-09-10T04:04:50.686Z,15.70
2022-09-10T04:05:53.621Z,15.70
2022-09-10T04:06:55.728Z,15.70
2022-09-10T04:07:59.419Z,15.70
2022-09-10T04:09:02.017Z,15.70
2022-09-10T04:10:05.512Z,15.70
2022-09-10T04:11:07.454Z,15.70
2022-09-10T04:12:10.629Z,15.70
2022-09-10T04:13:12.693Z,15.70
2022-09-10T04:14:15.997Z,15.70
2022-09-10T04:15:20.536Z,15.70
2022-09-10T04:16:24.197Z,15.80
2022-09-10T04:17:26.277Z,15.70
2022-09-10T04:18:29.496Z,15.70
2022-09-10T04:19:32.766Z,15.70
2022-09-10T04:20:38.012Z,15.80
2022-09-10T04:21:39.953Z,15.70
2022-09-10T04:22:42.872Z,15.70
2022-09-10T04:23:45.569Z,15.70
2022-09-10T04:24:48.467Z,15.70
2022-09-10T04:25:50.632Z,15.70
2022-09-10T04:26:53.574Z,15.70
2022-09-10T04:27:55.489Z,15.70
2022-09-10T04:28:58.425Z,15.70
2022-09-10T04:30:00.334Z,15.70
2022-09-10T04:31:05.772Z,15.70
2022-09-10T04:32:07.731Z,15.80
2022-09-10T04:33:11.612Z,15.80
2022-09-10T04:34:13.599Z,15.70
2022-09-10T04:35:20.323Z,15.80
2022-09-10T04:36:22.267Z,15.80
2022-09-10T04:37:25.255Z,15.80
2022-09-10T04:38:27.351Z,15.80
2022-09-10T04:39:30.293Z,15.80
2022-09-10T04:40:32.316Z,15.80
2022-09-10T04:41:35.494Z,15.80
2022-09-10T04:42:38.216Z,15.80
2022-09-10T04:43:41.115Z,15.80
2022-09-10T04:44:43.132Z,15.80
2022-09-10T04:45:46.122Z,15.80
2022-09-10T04:46:48.116Z,15.80
2022-09-10T04:47:52.042Z,15.80
2022-09-10T04:48:54.280Z,15.80
2022-09-10T04:49:57.175Z,15.80
2022-09-10T04:51:15.735Z,15.70
2022-09-10T04:52:22.766Z,15.80
2022-09-10T04:53:25.539Z,15.90
2022-09-10T04:54:28.444Z,15.90
2022-09-10T04:55:31.197Z,15.80
2022-09-10T04:56:34.925Z,15.80
2022-09-10T04:57:36.855Z,15.80
2022-09-10T04:58:39.915Z,15.80
2022-09-10T04:59:42.115Z,15.70
2022-09-10T05:00:45.295Z,15.70
2022-09-10T05:01:50.226Z,15.70
2022-09-10T05:02:53.200Z,15.70
2022-09-10T05:03:55.101Z,15.70
2022-09-10T05:04:58.130Z,15.70
2022-09-10T05:06:01.473Z,15.80
2022-09-10T05:07:04.491Z,15.90
2022-09-10T05:08:07.936Z,15.80
2022-09-10T05:09:11.498Z,15.80
2022-09-10T05:10:13.500Z,15.90
2022-09-10T05:11:19.730Z,15.90
2022-09-10T05:12:24.269Z,15.90
2022-09-10T05:13:27.395Z,15.90
2022-09-10T05:14:29.429Z,15.90
2022-09-10T05:15:34.243Z,15.90
2022-09-10T05:16:36.542Z,15.90
2022-09-10T05:17:39.786Z,15.80
2022-09-10T05:18:41.918Z,15.80
2022-09-10T05:19:44.821Z,15.90
2022-09-10T05:20:46.712Z,15.80
2022-09-10T05:21:51.021Z,15.90
2022-09-10T05:22:52.973Z,15.90
2022-09-10T05:23:56.038Z,15.90
2022-09-10T05:24:58.241Z,15.90
2022-09-10T05:26:01.153Z,15.90
2022-09-10T05:27:03.410Z,15.90
2022-09-10T05:28:06.500Z,15.90
2022-09-10T05:29:08.413Z,15.90
2022-09-10T05:30:11.946Z,15.80
2022-09-10T05:31:15.094Z,15.80
2022-09-10T05:32:18.611Z,15.80
2022-09-10T05:33:22.031Z,15.90
2022-09-10T05:34:24.649Z,15.90
2022-09-10T05:35:28.879Z,15.90
2022-09-10T05:36:32.004Z,16.00
2022-09-10T05:37:36.302Z,15.90
2022-09-10T05:38:40.105Z,15.90
2022-09-10T05:39:43.376Z,15.90
2022-09-10T05:40:45.618Z,15.90
2022-09-10T05:41:48.574Z,15.90
2022-09-10T05:42:50.590Z,15.90
2022-09-10T05:43:53.491Z,16.00
2022-09-10T05:44:55.407Z,16.00
2022-09-10T05:45:58.347Z,15.90
2022-09-10T05:47:00.329Z,15.90
2022-09-10T05:48:04.108Z,16.00
2022-09-10T05:49:06.013Z,15.90
2022-09-10T05:50:09.466Z,16.00
2022-09-10T05:51:11.637Z,16.00
2022-09-10T05:52:14.537Z,15.90
2022-09-10T05:53:17.811Z,15.90
2022-09-10T05:54:20.751Z,16.00
2022-09-10T05:55:22.748Z,15.90
2022-09-10T05:56:26.200Z,15.90
2022-09-10T05:57:28.181Z,15.90
2022-09-10T05:58:31.121Z,15.90
2022-09-10T05:59:34.379Z,16.00
2022-09-10T06:00:37.470Z,15.90
2022-09-10T06:01:39.464Z,16.00
2022-09-10T06:02:42.777Z,16.00
2022-09-10T06:03:44.796Z,16.00
2022-09-10T06:04:47.702Z,16.00
2022-09-10T06:05:50.517Z,16.00
2022-09-10T06:06:53.922Z,16.10
2022-09-10T06:07:56.557Z,16.00
2022-09-10T06:09:00.856Z,16.00
2022-09-10T06:10:02.819Z,16.00
2022-09-10T06:11:07.694Z,16.10
2022-09-10T06:12:09.933Z,16.00
2022-09-10T06:13:12.832Z,16.00
2022-09-10T06:14:15.469Z,16.00
2022-09-10T06:15:18.932Z,15.90
2022-09-10T06:16:20.952Z,15.90
2022-09-10T06:17:23.914Z,16.00
2022-09-10T06:18:25.825Z,16.00
2022-09-10T06:19:29.282Z,16.00
2022-09-10T06:20:31.198Z,16.10
2022-09-10T06:21:34.177Z,16.20
2022-09-10T06:22:36.410Z,16.10
2022-09-10T06:23:40.261Z,16.10
2022-09-10T06:24:43.797Z,16.10
2022-09-10T06:25:48.388Z,16.10
2022-09-10T06:26:50.816Z,16.00
2022-09-10T06:27:53.783Z,16.00
2022-09-10T06:28:56.760Z,16.00
2022-09-10T06:29:59.755Z,15.90
2022-09-10T06:31:03.608Z,15.90
2022-09-10T06:32:07.179Z,15.90
2022-09-10T06:33:10.213Z,15.90
2022-09-10T06:34:12.121Z,16.00
2022-09-10T06:35:15.568Z,16.00
2022-09-10T06:36:17.578Z,16.00
2022-09-10T06:37:20.501Z,16.00
2022-09-10T06:38:23.562Z,16.00
2022-09-10T06:39:28.256Z,16.00
2022-09-10T06:40:32.832Z,16.00
2022-09-10T06:41:35.766Z,16.00
2022-09-10T06:42:38.002Z,16.00
2022-09-10T06:43:41.614Z,16.00
2022-09-10T06:44:44.184Z,16.00
2022-09-10T06:45:47.511Z,16.00
2022-09-10T06:48:38.125Z,16.00
2022-09-10T06:49:36.745Z,15.90
2022-09-10T06:50:38.717Z,15.90
2022-09-10T06:51:42.690Z,16.00
2022-09-10T06:52:45.017Z,15.90
2022-09-10T06:53:48.041Z,16.00
2022-09-10T06:54:51.062Z,16.00
2022-09-10T06:55:56.284Z,16.00
2022-09-10T06:56:58.321Z,16.10
2022-09-10T06:58:01.398Z,16.10
2022-09-10T06:59:04.377Z,16.10
2022-09-10T07:00:08.046Z,16.10
2022-09-10T07:01:14.646Z,16.10
2022-09-10T07:02:16.829Z,16.10
2022-09-10T07:03:21.535Z,16.10
2022-09-10T07:04:24.620Z,14.30
2022-09-10T07:05:27.766Z,16.10
2022-09-10T07:06:34.803Z,16.10
2022-09-10T07:07:37.539Z,16.10
2022-09-10T07:08:40.875Z,16.00
2022-09-10T07:09:43.185Z,16.00
2022-09-10T07:10:46.708Z,16.00
2022-09-10T07:11:50.032Z,16.10
2022-09-10T07:12:52.956Z,16.10
2022-09-10T07:13:54.888Z,16.10
2022-09-10T07:14:57.797Z,16.10
2022-09-10T07:15:59.819Z,16.10
2022-09-10T07:17:02.829Z,16.10
2022-09-10T07:18:04.900Z,16.10
2022-09-10T07:19:08.325Z,16.20
2022-09-10T07:20:10.470Z,16.10
2022-09-10T07:21:15.213Z,16.10
2022-09-10T07:22:17.150Z,16.10
2022-09-10T07:23:22.165Z,16.10
2022-09-10T07:24:24.333Z,16.10
2022-09-10T07:25:27.842Z,16.10
2022-09-10T07:26:30.391Z,16.10
2022-09-10T07:27:34.654Z,16.20
2022-09-10T07:28:38.035Z,16.10
2022-09-10T07:29:41.019Z,16.20
2022-09-10T07:30:44.186Z,16.20
2022-09-10T07:31:48.386Z,16.20
2022-09-10T07:32:50.446Z,16.20
2022-09-10T07:33:53.340Z,16.20
2022-09-10T07:34:58.066Z,16.20
2022-09-10T07:36:00.663Z,16.20
2022-09-10T07:37:03.624Z,16.20
2022-09-10T07:38:06.893Z,16.20
2022-09-10T07:39:11.627Z,16.20
2022-09-10T07:40:14.670Z,16.20
2022-09-10T07:41:17.637Z,16.20
2022-09-10T07:42:19.593Z,16.20
2022-09-10T07:43:24.410Z,16.20
2022-09-10T07:44:26.492Z,16.20
2022-09-10T07:45:30.223Z,16.20
2022-09-10T07:46:32.281Z,16.20
2022-09-10T07:47:35.230Z,16.30
2022-09-10T07:48:38.891Z,16.30
2022-09-10T07:49:41.800Z,16.30
2022-09-10T07:50:45.406Z,16.40
2022-09-10T07:51:47.352Z,16.40
2022-09-10T07:52:50.317Z,16.50
2022-09-10T07:53:55.125Z,16.50
2022-09-10T07:54:57.046Z,16.40
2022-09-10T07:56:02.001Z,16.50
2022-09-10T07:57:05.009Z,16.50
2022-09-10T07:58:07.919Z,16.50
2022-09-10T07:59:11.725Z,16.50
2022-09-10T08:00:16.803Z,16.50
2022-09-10T08:01:20.592Z,16.40
2022-09-10T08:02:25.948Z,16.40
2022-09-10T08:03:29.567Z,16.40
2022-09-10T08:04:36.426Z,16.40
2022-09-10T08:05:40.991Z,16.40
2022-09-10T08:06:42.942Z,16.40
2022-09-10T08:07:46.146Z,16.40
2022-09-10T08:08:48.105Z,16.40
2022-09-10T08:09:51.041Z,16.30
2022-09-10T08:10:53.557Z,16.30
2022-09-10T08:11:56.973Z,16.20
2022-09-10T08:12:59.442Z,16.20
2022-09-10T08:14:02.841Z,16.20
2022-09-10T08:15:08.530Z,16.20
2022-09-10T08:16:13.080Z,16.20
2022-09-10T08:17:15.238Z,16.10
2022-09-10T08:18:18.145Z,16.00
2022-09-10T08:19:20.108Z,16.00
2022-09-10T08:20:26.722Z,16.00
2022-09-10T08:21:29.879Z,16.00
2022-09-10T08:22:33.702Z,16.00
2022-09-10T08:23:36.606Z,16.00
2022-09-10T08:24:39.490Z,16.00
2022-09-10T08:25:51.469Z,16.00
2022-09-10T08:26:54.564Z,16.10
2022-09-10T08:27:57.413Z,16.20
2022-09-10T08:29:02.633Z,16.20
2022-09-10T08:30:07.190Z,16.30
2022-09-10T08:31:12.699Z,16.30
2022-09-10T08:32:14.645Z,16.30
2022-09-10T08:33:18.218Z,16.30
2022-09-10T08:34:20.334Z,16.30
2022-09-10T08:35:23.838Z,16.30
2022-09-10T08:36:26.182Z,16.30
2022-09-10T08:37:31.024Z,16.30
2022-09-10T08:38:34.961Z,16.30
2022-09-10T08:39:37.898Z,16.30
2022-09-10T08:40:42.278Z,16.30
2022-09-10T08:41:49.642Z,16.30
2022-09-10T08:42:52.792Z,16.30
2022-09-10T08:43:59.652Z,16.40
2022-09-10T08:45:10.618Z,16.40
2022-09-10T08:46:21.347Z,16.50
2022-09-10T08:47:32.289Z,16.40
2022-09-10T08:48:39.607Z,16.40
2022-09-10T08:49:48.491Z,16.40
2022-09-10T08:50:55.784Z,16.30
2022-09-10T08:52:02.114Z,16.30
2022-09-10T08:53:19.180Z,16.30
2022-09-10T08:54:27.010Z,16.30
2022-09-10T08:55:33.270Z,16.30
2022-09-10T08:56:35.457Z,16.30
2022-09-10T08:57:45.127Z,16.30
2022-09-10T08:58:55.478Z,16.30
2022-09-10T08:59:59.637Z,16.20
2022-09-10T09:01:05.814Z,16.20
2022-09-10T09:02:37.777Z,16.10
2022-09-10T09:03:45.502Z,16.10
2022-09-10T09:04:51.082Z,16.20
2022-09-10T09:05:57.051Z,16.20
2022-09-10T09:07:02.835Z,16.20
2022-09-10T09:08:06.237Z,16.30
2022-09-10T09:09:15.500Z,16.30
2022-09-10T09:10:27.746Z,16.40
2022-09-10T09:11:41.690Z,16.50
2022-09-10T09:12:53.318Z,16.50
2022-09-10T09:14:08.086Z,16.40
2022-09-10T09:15:15.009Z,16.40
2022-09-10T09:16:34.772Z,16.40
2022-09-10T09:17:51.600Z,16.50
2022-09-10T09:19:06.048Z,16.50
2022-09-10T09:20:18.161Z,16.60
2022-09-10T09:21:32.267Z,16.70
2022-09-10T09:22:43.732Z,16.70
2022-09-10T09:24:12.137Z,16.80
2022-09-10T09:25:23.020Z,16.80
2022-09-10T09:26:30.481Z,16.90
2022-09-10T09:27:36.317Z,16.90
2022-09-10T09:28:45.058Z,17.00
2022-09-10T09:29:52.129Z,17.10
2022-09-10T09:30:57.356Z,17.10
2022-09-10T09:32:05.351Z,17.10
2022-09-10T09:33:16.290Z,17.00
2022-09-10T09:34:23.440Z,17.00
2022-09-10T09:35:32.249Z,17.10
2022-09-10T09:36:41.097Z,17.10
2022-09-10T09:37:47.380Z,17.10
2022-09-10T09:38:51.482Z,17.10
2022-09-10T09:40:06.374Z,17.10
2022-09-10T09:41:18.588Z,17.10
2022-09-10T09:42:29.070Z,17.00
2022-09-10T09:43:50.681Z,17.00
2022-09-10T09:45:00.397Z,16.90
2022-09-10T09:46:04.497Z,16.90
2022-09-10T09:47:08.809Z,16.80
2022-09-10T09:48:15.494Z,16.80
2022-09-10T09:49:17.610Z,14.50
2022-09-10T09:50:20.792Z,16.80
2022-09-10T09:51:25.113Z,16.80
2022-09-10T09:52:31.866Z,16.80
2022-09-10T09:53:34.042Z,16.80
2022-09-10T09:55:13.116Z,16.80
2022-09-10T09:56:18.190Z,16.80
2022-09-10T09:57:22.099Z,16.70
2022-09-10T09:58:33.690Z,16.70
2022-09-10T09:59:36.689Z,16.70
2022-09-10T10:00:38.719Z,16.80
2022-09-10T10:01:43.368Z,16.80
2022-09-10T10:02:55.133Z,16.80
2022-09-10T10:04:01.517Z,16.80
2022-09-10T10:05:07.277Z,16.80
2022-09-10T10:06:12.236Z,16.90
2022-09-10T10:07:15.187Z,16.80
2022-09-10T10:08:30.806Z,16.80
2022-09-10T10:09:34.721Z,16.80
2022-09-10T10:10:36.679Z,16.80
2022-09-10T10:11:49.731Z,16.80
2022-09-10T10:12:55.156Z,16.90
2022-09-10T10:14:12.563Z,17.00
2022-09-10T10:15:37.129Z,17.10
2022-09-10T10:16:39.247Z,17.00
2022-09-10T10:17:43.439Z,17.10
2022-09-10T10:18:46.984Z,17.10
2022-09-10T10:19:59.832Z,17.10
2022-09-10T10:21:13.561Z,17.20
2022-09-10T10:22:26.952Z,17.30
2022-09-10T10:23:33.836Z,17.50
2022-09-10T10:24:36.778Z,17.70
2022-09-10T10:25:41.179Z,17.80
2022-09-10T10:26:46.392Z,17.80
2022-09-10T10:27:51.303Z,17.90
2022-09-10T10:28:58.701Z,18.10
2022-09-10T10:30:06.043Z,18.10
2022-09-10T10:31:08.058Z,18.20
2022-09-10T10:32:19.765Z,18.10
2022-09-10T10:33:27.993Z,18.20
2022-09-10T10:34:45.473Z,18.20
2022-09-10T10:35:56.437Z,18.20
2022-09-10T10:37:06.757Z,18.20
2022-09-10T10:38:25.182Z,18.20
2022-09-10T10:39:47.299Z,18.20
2022-09-10T10:41:03.374Z,18.20
2022-09-10T10:42:13.599Z,18.20
2022-09-10T10:43:26.230Z,18.20
2022-09-10T10:44:39.078Z,18.20
2022-09-10T10:45:53.992Z,18.30
2022-09-10T10:47:14.366Z,18.20
2022-09-10T10:48:30.813Z,18.20
2022-09-10T10:49:50.421Z,18.10
2022-09-10T10:50:58.744Z,18.10
2022-09-10T10:52:10.210Z,18.10
2022-09-10T10:53:34.405Z,18.10
2022-09-10T10:54:51.620Z,18.10
2022-09-10T10:56:00.713Z,18.10
2022-09-10T10:57:13.117Z,18.10
2022-09-10T10:58:29.199Z,18.20
2022-09-10T10:59:44.886Z,18.20
2022-09-10T11:00:53.158Z,18.30
2022-09-10T11:02:00.699Z,18.30
2022-09-10T11:03:07.498Z,18.30
2022-09-10T11:04:22.924Z,18.40
2022-09-10T11:05:31.960Z,18.40
2022-09-10T11:06:38.960Z,18.40
2022-09-10T11:07:45.167Z,18.40
2022-09-10T11:08:51.385Z,18.40
2022-09-10T11:10:00.581Z,18.40
2022-09-10T11:11:09.161Z,18.30
2022-09-10T11:12:17.787Z,18.30
2022-09-10T11:13:25.598Z,18.20
2022-09-10T11:14:35.870Z,18.20
2022-09-10T11:15:43.346Z,18.20
2022-09-10T11:16:49.582Z,18.20
2022-09-10T11:17:59.022Z,18.20
2022-09-10T11:19:08.890Z,18.00
2022-09-10T11:20:28.450Z,18.00
2022-09-10T11:21:38.269Z,17.90
2022-09-10T11:22:46.389Z,17.90
2022-09-10T11:23:52.231Z,17.90
2022-09-10T11:24:58.393Z,17.90
2022-09-10T11:26:07.416Z,17.80
2022-09-10T11:27:14.436Z,17.80
2022-09-10T11:28:22.482Z,18.00
2022-09-10T11:29:35.441Z,17.90
2022-09-10T11:30:42.351Z,18.00
2022-09-10T11:31:48.165Z,18.10
2022-09-10T11:32:57.353Z,18.20
2022-09-10T11:34:05.642Z,18.20
2022-09-10T11:35:14.554Z,18.20
2022-09-10T11:36:26.124Z,18.10
2022-09-10T11:37:45.021Z,18.10
2022-09-10T11:38:55.509Z,18.00
2022-09-10T11:40:02.009Z,17.90
2022-09-10T11:41:09.233Z,18.00
2022-09-10T11:42:18.408Z,17.90
2022-09-10T11:43:30.054Z,17.90
2022-09-10T11:44:44.392Z,17.90
2022-09-10T11:45:53.325Z,17.90
2022-09-10T11:47:02.856Z,17.90
2022-09-10T11:48:13.273Z,17.80
2022-09-10T11:49:22.507Z,17.80
2022-09-10T11:50:33.873Z,17.80
2022-09-10T11:51:39.764Z,17.80
2022-09-10T11:52:43.293Z,17.80
2022-09-10T11:53:46.421Z,17.70
2022-09-10T11:54:48.836Z,17.70
2022-09-10T11:56:16.156Z,17.70
2022-09-10T11:57:31.142Z,17.60
2022-09-10T11:58:45.576Z,17.50
2022-09-10T12:00:08.281Z,17.40
2022-09-10T12:01:18.818Z,17.30
2022-09-10T12:02:48.877Z,17.30
2022-09-10T12:04:05.630Z,17.20
2022-09-10T12:05:20.762Z,17.10
2022-09-10T12:06:33.383Z,17.10
2022-09-10T12:07:49.063Z,17.10
2022-09-10T12:09:06.467Z,17.10
2022-09-10T12:10:20.097Z,17.10
2022-09-10T12:11:31.571Z,17.00
2022-09-10T12:12:40.681Z,17.00
2022-09-10T12:13:45.632Z,17.00
2022-09-10T12:14:48.757Z,17.00
2022-09-10T12:15:53.141Z,17.10
2022-09-10T12:16:58.621Z,16.90
2022-09-10T12:18:06.283Z,16.90
2022-09-10T12:19:17.956Z,16.90
2022-09-10T12:20:26.987Z,16.90
2022-09-10T12:21:34.227Z,12.90
2022-09-10T12:22:41.791Z,16.80
2022-09-10T12:23:45.116Z,16.80
2022-09-10T12:24:54.632Z,16.70
2022-09-10T12:25:58.441Z,16.80
2022-09-10T12:27:02.972Z,16.80
2022-09-10T12:28:07.952Z,16.80
2022-09-10T12:29:29.557Z,16.80
2022-09-10T12:31:01.139Z,16.80
2022-09-10T12:32:31.193Z,16.80
2022-09-10T12:34:05.625Z,16.80
2022-09-10T12:35:45.145Z,16.90
2022-09-10T12:37:19.305Z,16.90
2022-09-10T12:38:48.743Z,16.90
2022-09-10T12:40:21.412Z,16.80
2022-09-10T12:41:57.089Z,16.90
2022-09-10T12:43:01.755Z,16.80
2022-09-10T12:44:24.943Z,16.80
2022-09-10T12:46:02.645Z,16.80
2022-09-10T12:47:50.505Z,16.80
2022-09-10T12:49:11.307Z,16.60
2022-09-10T12:50:51.902Z,16.70
2022-09-10T12:51:59.343Z,16.70
2022-09-10T12:53:19.945Z,16.60
2022-09-10T12:54:42.248Z,16.50
2022-09-10T12:55:57.762Z,16.50
2022-09-10T12:57:38.142Z,16.50
2022-09-10T12:58:55.182Z,16.40
2022-09-10T13:00:19.513Z,16.50
2022-09-10T13:01:37.981Z,16.60
2022-09-10T13:02:48.129Z,16.60
2022-09-10T13:03:54.942Z,16.60
2022-09-10T13:05:01.854Z,16.60
2022-09-10T13:06:06.993Z,16.50
2022-09-10T13:07:23.334Z,16.50
2022-09-10T13:08:29.370Z,16.50
2022-09-10T13:09:37.011Z,16.50
2022-09-10T13:10:42.025Z,16.60
2022-09-10T13:11:49.559Z,16.60
2022-09-10T13:12:56.220Z,16.60
2022-09-10T13:14:02.217Z,16.70
2022-09-10T13:15:06.018Z,16.80
2022-09-10T13:16:15.728Z,16.90
2022-09-10T13:17:54.403Z,16.90
2022-09-10T13:19:36.301Z,17.10
2022-09-10T13:20:40.762Z,17.30
2022-09-10T13:21:54.789Z,17.40
2022-09-10T13:23:01.331Z,17.70
2022-09-10T13:24:03.458Z,17.70
2022-09-10T13:25:26.982Z,17.80
2022-09-10T13:26:50.433Z,17.90
2022-09-10T13:27:52.702Z,18.00
2022-09-10T13:29:09.166Z,18.00
2022-09-10T13:30:16.160Z,18.10
2022-09-10T13:31:23.766Z,18.10
2022-09-10T13:32:29.853Z,18.10
2022-09-10T13:33:38.925Z,18.20
2022-09-10T13:35:04.660Z,18.20
2022-09-10T13:36:20.962Z,18.30
2022-09-10T13:37:39.534Z,18.20
2022-09-10T13:39:03.330Z,18.30
2022-09-10T13:40:40.126Z,18.30
2022-09-10T13:42:06.076Z,18.40
2022-09-10T13:43:33.678Z,18.40
2022-09-10T13:44:52.460Z,18.30
2022-09-10T13:45:59.516Z,18.30
2022-09-10T13:47:09.225Z,18.10
2022-09-10T13:48:17.285Z,18.20
2022-09-10T13:49:33.158Z,18.20
2022-09-10T13:50:39.738Z,18.10
2022-09-10T13:51:50.149Z,18.10
2022-09-10T13:52:56.701Z,18.10
2022-09-10T13:54:07.211Z,18.00
2022-09-10T13:55:16.369Z,18.00
2022-09-10T13:56:23.452Z,17.90
2022-09-10T13:57:29.802Z,17.90
2022-09-10T13:58:37.370Z,17.90
2022-09-10T13:59:41.777Z,17.80
2022-09-10T14:00:53.037Z,17.80
2022-09-10T14:01:56.131Z,17.90
2022-09-10T14:03:00.486Z,17.90
2022-09-10T14:04:21.913Z,17.90
2022-09-10T14:05:34.987Z,17.90
2022-09-10T14:06:36.958Z,17.90
2022-09-10T14:07:43.938Z,18.00
2022-09-10T14:08:52.936Z,18.00
2022-09-10T14:09:59.778Z,18.00
2022-09-10T14:11:07.553Z,18.00
2022-09-10T14:12:10.498Z,18.00
2022-09-10T14:13:13.482Z,17.90
2022-09-10T14:14:20.805Z,17.90
2022-09-10T14:15:27.541Z,17.90
2022-09-10T14:16:35.776Z,17.90
2022-09-10T14:17:43.065Z,17.80
2022-09-10T14:18:49.324Z,17.70
2022-09-10T14:19:55.471Z,17.70
2022-09-10T14:20:58.654Z,17.60
2022-09-10T14:22:01.540Z,17.60
2022-09-10T14:23:08.621Z,17.60
2022-09-10T14:24:27.385Z,17.60